KMYR/MYR METAR and TAF weather

Enter ICAO airport designator
Station Type Date Time Source
KMYR METAR 2020/09/23 00:56 UTC NOAA

KMYR 230056Z 32003KT 10SM CLR 17/12 A3012 RMK AO2 SLP200 T01670122 PNO $


Station Type Date Time Source
KMYR Decoded METAR 2020/09/23 00:56 UTC NOAA

Myrtle Beach Air Force Base, SC, United States (KMYR) 33-41N 078-56W 8M
Sep 22, 2020 - 08:56 PM EDT / 2020.09.23 0056 UTC
Wind: from the NW (320 degrees) at 3 MPH (3 KT):0
Visibility: 10 mile(s):0
Sky conditions: clear
Temperature: 62.1 F (16.7 C)
Dew Point: 54.0 F (12.2 C)
Relative Humidity: 74%
Pressure (altimeter): 30.12 in. Hg (1019 hPa)
ob: KMYR 230056Z 32003KT 10SM CLR 17/12 A3012 RMK AO2 SLP200 T01670122 PNO
cycle: 1

Station Type Date Time Source
KMYR TAF 2020/09/22 18:22 UTC NOAA

TAF KMYR 221720Z 2218/2318 01007KT P6SM SKC
FM222100 34007KT P6SM SKC
FM230000 31005KT P6SM SKC
FM230300 00000KT P6SM FEW250

Example: see airport list